Thunderstorms From: 25-05-2018 05:05 Until: 26-05-2018 05:00 warning for: Thunderstorms Level: Yellow info button

Although rather usual in this region, locally or potentially dangerous phenomena are expected. (such as local winds, summer thunderstorms, rising streams or high waves) Be aware and pay attention to the latest weather updates, especially if you carry out activities exposed to weather or close to a stream or shoreline. 


Meteo18 Weather Cam more information Meteo18 Weather Cam


warning for Thunderstorms more information blitzortung!


Rain radar more information rain snow radar


Visit our other weather sites:

Template documentation
and downloads

And another site



Weather Underground History page Text

Daily Summary for March 28, 2017 Units:  Both    English   Metric
« Previous Day
Next Day »
Daily Weekly Monthly Yearly Custom
  High: Low: Average:
Temperature: TemperatureC °F /  -17.8 °C 7.7 °F /  -13.5 °C 12.5 °F /  -10.8 °C
Dew Point: DewpointC °F /  -17.8 °C 4.3 °F /  -15.4 °C 7.1 °F /  -13.8 °C
Humidity: Humidity % 51 % 70 %
Wind Speed: WindSpeedKMH mph /  0 km/h - 4.6 mph /  7.4 km/h
Wind Gust: WindSpeedGustKMH mph /  0 km/h - -
Wind:- - WSW
Pressure: PressurehPa in /  0 hPa 1020.9 in /  34567.7 hPa -
Precipitation: 0.0 in /  0 mm    
Historical Graphs
 
 
Tabular Data for March 28, 2017
Time Temperature Dew Point Pressure Wind Wind Speed Wind Gust Humidity Rainfall Rate (Hourly)
TemperatureC °F /  -17.8 °C DewpointC °F /  -17.8 °C PressurehPa in /  0 hPa Calm     Humidity % HourlyPrecipMM in /  0 mm
00:02 10.3 °F /  -12.1 °C 5.5 °F /  -14.7 °C 1020.9 in /  34567.7 hPa WNW 3.2 mph /  5.1 km/h 3.2 mph /  5.1 km/h 72 % 0.0 in /  0 mm
00:12 10.3 °F /  -12.1 °C 5.3 °F /  -14.8 °C 1020.9 in /  34567.7 hPa WNW 1.6 mph /  2.6 km/h 3.2 mph /  5.1 km/h 71 % 0.0 in /  0 mm
00:17 10.2 °F /  -12.1 °C 5.4 °F /  -14.8 °C 1021.2 in /  34577.8 hPa WNW 1.6 mph /  2.6 km/h 3.2 mph /  5.1 km/h 72 % 0.0 in /  0 mm
00:22 10.0 °F /  -12.2 °C 5.2 °F /  -14.9 °C 1021.2 in /  34577.8 hPa WNW 3.2 mph /  5.1 km/h 3.2 mph /  5.1 km/h 72 % 0.0 in /  0 mm
00:32 10.1 °F /  -12.2 °C 5.1 °F /  -14.9 °C 1021.2 in /  34577.8 hPa WNW 3.2 mph /  5.1 km/h 4.8 mph /  7.7 km/h 71 % 0.0 in /  0 mm
00:37 9.9 °F /  -12.3 °C 5.1 °F /  -14.9 °C 1021.2 in /  34577.8 hPa WNW 1.6 mph /  2.6 km/h 4.8 mph /  7.7 km/h 72 % 0.0 in /  0 mm
00:42 9.7 °F /  -12.4 °C 5.1 °F /  -14.9 °C 1021.2 in /  34577.8 hPa WNW 1.6 mph /  2.6 km/h 4.8 mph /  7.7 km/h 73 % 0.0 in /  0 mm
00:52 9.6 °F /  -12.4 °C 5.0 °F /  -15 °C 1021.2 in /  34577.8 hPa Calm   3.2 mph /  5.1 km/h 73 % 0.0 in /  0 mm
01:02 9.3 °F /  -12.6 °C 4.9 °F /  -15.1 °C 1021.2 in /  34577.8 hPa Calm   1.6 mph /  2.6 km/h 74 % 0.0 in /  0 mm
01:12 9.6 °F /  -12.4 °C 4.8 °F /  -15.1 °C 1021.2 in /  34577.8 hPa Calm   1.6 mph /  2.6 km/h 72 % 0.0 in /  0 mm
01:17 9.6 °F /  -12.4 °C 4.8 °F /  -15.1 °C 1021.2 in /  34577.8 hPa Calm   1.6 mph /  2.6 km/h 72 % 0.0 in /  0 mm
01:22 8.9 °F /  -12.8 °C 4.7 °F /  -15.2 °C 1021.2 in /  34577.8 hPa West 1.6 mph /  2.6 km/h 1.6 mph /  2.6 km/h 75 % 0.0 in /  0 mm
01:32 8.9 °F /  -12.8 °C 4.7 °F /  -15.2 °C 1021.6 in /  34591.4 hPa Calm   3.2 mph /  5.1 km/h 75 % 0.0 in /  0 mm
01:37 9.2 °F /  -12.7 °C 4.8 °F /  -15.1 °C 1021.6 in /  34591.4 hPa Calm   4.8 mph /  7.7 km/h 74 % 0.0 in /  0 mm
01:42 9.4 °F /  -12.6 °C 4.8 °F /  -15.1 °C 1021.6 in /  34591.4 hPa NNE 4.8 mph /  7.7 km/h 4.8 mph /  7.7 km/h 73 % 0.0 in /  0 mm
01:47 9.2 °F /  -12.7 °C 4.8 °F /  -15.1 °C 1021.6 in /  34591.4 hPa Calm   4.8 mph /  7.7 km/h 74 % 0.0 in /  0 mm
01:52 8.8 °F /  -12.9 °C 4.6 °F /  -15.2 °C 1021.6 in /  34591.4 hPa Calm   4.8 mph /  7.7 km/h 75 % 0.0 in /  0 mm
01:57 8.8 °F /  -12.9 °C 4.6 °F /  -15.2 °C 1021.6 in /  34591.4 hPa Calm   4.8 mph /  7.7 km/h 75 % 0.0 in /  0 mm
02:02 8.4 °F /  -13.1 °C 4.4 °F /  -15.3 °C 1021.6 in /  34591.4 hPa Calm   4.8 mph /  7.7 km/h 76 % 0.0 in /  0 mm
02:07 8.8 °F /  -12.9 °C 4.8 °F /  -15.1 °C 1021.6 in /  34591.4 hPa NE 4.8 mph /  7.7 km/h 4.8 mph /  7.7 km/h 76 % 0.0 in /  0 mm
02:12 9.1 °F /  -12.7 °C 4.7 °F /  -15.2 °C 1021.6 in /  34591.4 hPa ENE 3.2 mph /  5.1 km/h 3.2 mph /  5.1 km/h 74 % 0.0 in /  0 mm
02:17 8.9 °F /  -12.8 °C 4.5 °F /  -15.3 °C 1021.6 in /  34591.4 hPa Calm   6.4 mph /  10.3 km/h 74 % 0.0 in /  0 mm
02:22 8.3 °F /  -13.2 °C 4.3 °F /  -15.4 °C 1021.9 in /  34601.5 hPa West 3.2 mph /  5.1 km/h 6.4 mph /  10.3 km/h 76 % 0.0 in /  0 mm
02:32 7.7 °F /  -13.5 °C 4.3 °F /  -15.4 °C 1022.2 in /  34611.7 hPa SW 6.4 mph /  10.3 km/h 6.4 mph /  10.3 km/h 79 % 0.0 in /  0 mm
02:37 8.2 °F /  -13.2 °C 4.8 °F /  -15.1 °C 1022.2 in /  34611.7 hPa SW 4.8 mph /  7.7 km/h 17.7 mph /  28.5 km/h 79 % 0.0 in /  0 mm
02:42 8.7 °F /  -12.9 °C 4.9 °F /  -15.1 °C 1022.2 in /  34611.7 hPa SE 1.6 mph /  2.6 km/h 17.7 mph /  28.5 km/h 77 % 0.0 in /  0 mm
02:47 8.7 °F /  -12.9 °C 4.9 °F /  -15.1 °C 1022.2 in /  34611.7 hPa Calm   17.7 mph /  28.5 km/h 77 % 0.0 in /  0 mm
02:52 8.7 °F /  -12.9 °C 4.7 °F /  -15.2 °C 1022.2 in /  34611.7 hPa Calm   11.3 mph /  18.2 km/h 76 % 0.0 in /  0 mm
02:57 8.6 °F /  -13 °C 5.0 °F /  -15 °C 1022.2 in /  34611.7 hPa West 1.6 mph /  2.6 km/h 4.8 mph /  7.7 km/h 78 % 0.0 in /  0 mm
03:02 9.1 °F /  -12.7 °C 5.1 °F /  -14.9 °C 1021.9 in /  34601.5 hPa WNW 1.6 mph /  2.6 km/h 3.2 mph /  5.1 km/h 76 % 0.0 in /  0 mm
03:12 8.6 °F /  -13 °C 4.8 °F /  -15.1 °C 1022.2 in /  34611.7 hPa NE 3.2 mph /  5.1 km/h 3.2 mph /  5.1 km/h 77 % 0.0 in /  0 mm
03:17 8.4 °F /  -13.1 °C 4.8 °F /  -15.1 °C 1022.2 in /  34611.7 hPa Calm   3.2 mph /  5.1 km/h 78 % 0.0 in /  0 mm
03:22 8.4 °F /  -13.1 °C 5.0 °F /  -15 °C 1022.2 in /  34611.7 hPa ESE 1.6 mph /  2.6 km/h 3.2 mph /  5.1 km/h 79 % 0.0 in /  0 mm
03:32 8.4 °F /  -13.1 °C 4.8 °F /  -15.1 °C 1022.2 in /  34611.7 hPa Calm   3.2 mph /  5.1 km/h 78 % 0.0 in /  0 mm
03:37 8.4 °F /  -13.1 °C 5.0 °F /  -15 °C 1022.2 in /  34611.7 hPa Calm   1.6 mph /  2.6 km/h 79 % 0.0 in /  0 mm
03:42 8.3 °F /  -13.2 °C 4.9 °F /  -15.1 °C 1022.2 in /  34611.7 hPa Calm   1.6 mph /  2.6 km/h 79 % 0.0 in /  0 mm
03:47 8.2 °F /  -13.2 °C 5.0 °F /  -15 °C 1022.2 in /  34611.7 hPa Calm     80 % 0.0 in /  0 mm
03:52 8.1 °F /  -13.3 °C 4.9 °F /  -15.1 °C 1022.2 in /  34611.7 hPa Calm     80 % 0.0 in /  0 mm
03:57 8.1 °F /  -13.3 °C 4.9 °F /  -15.1 °C 1022.2 in /  34611.7 hPa Calm     80 % 0.0 in /  0 mm
04:02 8.0 °F /  -13.3 °C 4.8 °F /  -15.1 °C 1022.2 in /  34611.7 hPa Calm   1.6 mph /  2.6 km/h 80 % 0.0 in /  0 mm
04:12 7.9 °F /  -13.4 °C 4.8 °F /  -15.1 °C 1022.2 in /  34611.7 hPa Calm   1.6 mph /  2.6 km/h 81 % 0.0 in /  0 mm
04:17 7.9 °F /  -13.4 °C 4.8 °F /  -15.1 °C 1022.2 in /  34611.7 hPa South 1.6 mph /  2.6 km/h 1.6 mph /  2.6 km/h 81 % 0.0 in /  0 mm
04:22 7.8 °F /  -13.4 °C 4.7 °F /  -15.2 °C 1022.2 in /  34611.7 hPa Calm   3.2 mph /  5.1 km/h 81 % 0.0 in /  0 mm
04:27 7.7 °F /  -13.5 °C 4.8 °F /  -15.1 °C 1022.6 in /  34625.2 hPa Calm   3.2 mph /  5.1 km/h 82 % 0.0 in /  0 mm
04:32 7.8 °F /  -13.4 °C 5.1 °F /  -14.9 °C 1022.6 in /  34625.2 hPa SSW 1.6 mph /  2.6 km/h 3.2 mph /  5.1 km/h 83 % 0.0 in /  0 mm
04:37 8.0 °F /  -13.3 °C 5.3 °F /  -14.8 °C 1022.6 in /  34625.2 hPa SSW 4.8 mph /  7.7 km/h 4.8 mph /  7.7 km/h 83 % 0.0 in /  0 mm
04:42 8.4 °F /  -13.1 °C 5.5 °F /  -14.7 °C 1022.6 in /  34625.2 hPa SW 4.8 mph /  7.7 km/h 4.8 mph /  7.7 km/h 82 % 0.0 in /  0 mm
04:47 8.8 °F /  -12.9 °C 5.7 °F /  -14.6 °C 1022.6 in /  34625.2 hPa SW 4.8 mph /  7.7 km/h 11.3 mph /  18.2 km/h 81 % 0.0 in /  0 mm
04:52 8.9 °F /  -12.8 °C 5.8 °F /  -14.6 °C 1022.6 in /  34625.2 hPa SW 3.2 mph /  5.1 km/h 11.3 mph /  18.2 km/h 81 % 0.0 in /  0 mm
04:57 9.1 °F /  -12.7 °C 5.8 °F /  -14.6 °C 1022.6 in /  34625.2 hPa Calm   11.3 mph /  18.2 km/h 80 % 0.0 in /  0 mm
05:02 8.8 °F /  -12.9 °C 5.5 °F /  -14.7 °C 1022.6 in /  34625.2 hPa Calm   9.7 mph /  15.6 km/h 80 % 0.0 in /  0 mm
05:12 8.3 °F /  -13.2 °C 5.4 °F /  -14.8 °C 1022.9 in /  34635.4 hPa Calm   3.2 mph /  5.1 km/h 82 % 0.0 in /  0 mm
05:17 8.2 °F /  -13.2 °C 5.3 °F /  -14.8 °C 1022.9 in /  34635.4 hPa Calm   3.2 mph /  5.1 km/h 82 % 0.0 in /  0 mm
05:27 8.1 °F /  -13.3 °C 5.6 °F /  -14.7 °C 1022.9 in /  34635.4 hPa SSW 1.6 mph /  2.6 km/h 1.6 mph /  2.6 km/h 84 % 0.0 in /  0 mm
05:32 8.2 °F /  -13.2 °C 5.7 °F /  -14.6 °C 1022.9 in /  34635.4 hPa South 1.6 mph /  2.6 km/h 6.4 mph /  10.3 km/h 84 % 0.0 in /  0 mm
05:42 8.8 °F /  -12.9 °C 6.1 °F /  -14.4 °C 1022.9 in /  34635.4 hPa South 3.2 mph /  5.1 km/h 6.4 mph /  10.3 km/h 83 % 0.0 in /  0 mm
05:52 9.2 °F /  -12.7 °C 6.3 °F /  -14.3 °C 1022.9 in /  34635.4 hPa SW 4.8 mph /  7.7 km/h 11.3 mph /  18.2 km/h 82 % 0.0 in /  0 mm
06:02 9.7 °F /  -12.4 °C 6.6 °F /  -14.1 °C 1022.9 in /  34635.4 hPa West 1.6 mph /  2.6 km/h 11.3 mph /  18.2 km/h 81 % 0.0 in /  0 mm
06:12 9.9 °F /  -12.3 °C 6.8 °F /  -14 °C 1023.2 in /  34645.6 hPa WSW 1.6 mph /  2.6 km/h 11.3 mph /  18.2 km/h 81 % 0.0 in /  0 mm
06:17 9.8 °F /  -12.3 °C 6.7 °F /  -14.1 °C 1023.2 in /  34645.6 hPa SW 1.6 mph /  2.6 km/h 11.3 mph /  18.2 km/h 81 % 0.0 in /  0 mm
06:22 9.7 °F /  -12.4 °C 6.6 °F /  -14.1 °C 1023.2 in /  34645.6 hPa SE 1.6 mph /  2.6 km/h 4.8 mph /  7.7 km/h 81 % 0.0 in /  0 mm
06:32 9.3 °F /  -12.6 °C 6.6 °F /  -14.1 °C 1023.2 in /  34645.6 hPa Calm   4.8 mph /  7.7 km/h 83 % 0.0 in /  0 mm
06:37 9.2 °F /  -12.7 °C 6.5 °F /  -14.2 °C 1023.2 in /  34645.6 hPa Calm   3.2 mph /  5.1 km/h 83 % 0.0 in /  0 mm
06:42 9.1 °F /  -12.7 °C 6.5 °F /  -14.2 °C 1023.2 in /  34645.6 hPa Calm   3.2 mph /  5.1 km/h 84 % 0.0 in /  0 mm
06:47 9.0 °F /  -12.8 °C 6.6 °F /  -14.1 °C 1023.2 in /  34645.6 hPa SSW 4.8 mph /  7.7 km/h 4.8 mph /  7.7 km/h 85 % 0.0 in /  0 mm
06:52 9.2 °F /  -12.7 °C 6.6 °F /  -14.1 °C 1023.2 in /  34645.6 hPa SW 4.8 mph /  7.7 km/h 8.0 mph /  12.9 km/h 84 % 0.0 in /  0 mm
07:02 9.8 °F /  -12.3 °C 6.7 °F /  -14.1 °C 1023.2 in /  34645.6 hPa SW 3.2 mph /  5.1 km/h 8.0 mph /  12.9 km/h 81 % 0.0 in /  0 mm
07:07 10.0 °F /  -12.2 °C 6.7 °F /  -14.1 °C 1023.2 in /  34645.6 hPa WSW 1.6 mph /  2.6 km/h 8.0 mph /  12.9 km/h 80 % 0.0 in /  0 mm
07:12 10.1 °F /  -12.2 °C 6.6 °F /  -14.1 °C 1023.2 in /  34645.6 hPa Calm   6.4 mph /  10.3 km/h 79 % 0.0 in /  0 mm
07:17 10.1 °F /  -12.2 °C 6.6 °F /  -14.1 °C 1023.2 in /  34645.6 hPa Calm   6.4 mph /  10.3 km/h 79 % 0.0 in /  0 mm
07:22 9.8 °F /  -12.3 °C 6.5 °F /  -14.2 °C 1023.6 in /  34659.1 hPa Calm   3.2 mph /  5.1 km/h 80 % 0.0 in /  0 mm
07:32 9.0 °F /  -12.8 °C 6.3 °F /  -14.3 °C 1023.6 in /  34659.1 hPa SSE 1.6 mph /  2.6 km/h 4.8 mph /  7.7 km/h 83 % 0.0 in /  0 mm
07:42 8.3 °F /  -13.2 °C 6.1 °F /  -14.4 °C 1023.6 in /  34659.1 hPa SW 1.6 mph /  2.6 km/h 4.8 mph /  7.7 km/h 86 % 0.0 in /  0 mm
07:52 8.6 °F /  -13 °C 6.0 °F /  -14.4 °C 1023.9 in /  34669.3 hPa Calm   4.8 mph /  7.7 km/h 84 % 0.0 in /  0 mm
07:57 8.4 °F /  -13.1 °C 5.9 °F /  -14.5 °C 1023.9 in /  34669.3 hPa SSW 1.6 mph /  2.6 km/h 4.8 mph /  7.7 km/h 84 % 0.0 in /  0 mm
08:02 8.2 °F /  -13.2 °C 5.7 °F /  -14.6 °C 1023.9 in /  34669.3 hPa SW 1.6 mph /  2.6 km/h 4.8 mph /  7.7 km/h 84 % 0.0 in /  0 mm
08:07 7.9 °F /  -13.4 °C 5.5 °F /  -14.7 °C 1023.9 in /  34669.3 hPa Calm   4.8 mph /  7.7 km/h 85 % 0.0 in /  0 mm
08:12 7.8 °F /  -13.4 °C 5.6 °F /  -14.7 °C 1023.9 in /  34669.3 hPa Calm   3.2 mph /  5.1 km/h 86 % 0.0 in /  0 mm
08:17 7.8 °F /  -13.4 °C 5.8 °F /  -14.6 °C 1024.3 in /  34682.8 hPa Calm   3.2 mph /  5.1 km/h 87 % 0.0 in /  0 mm
08:22 8.0 °F /  -13.3 °C 6.0 °F /  -14.4 °C 1024.3 in /  34682.8 hPa Calm     87 % 0.0 in /  0 mm
08:32 8.2 °F /  -13.2 °C 6.2 °F /  -14.3 °C 1024.3 in /  34682.8 hPa ESE 1.6 mph /  2.6 km/h 3.2 mph /  5.1 km/h 87 % 0.0 in /  0 mm
08:37 8.3 °F /  -13.2 °C 6.3 °F /  -14.3 °C 1024.6 in /  34693 hPa Calm   3.2 mph /  5.1 km/h 87 % 0.0 in /  0 mm
08:42 8.7 °F /  -12.9 °C 6.7 °F /  -14.1 °C 1024.6 in /  34693 hPa Calm   3.2 mph /  5.1 km/h 87 % 0.0 in /  0 mm
08:52 9.3 °F /  -12.6 °C 6.9 °F /  -13.9 °C 1024.6 in /  34693 hPa Calm   1.6 mph /  2.6 km/h 85 % 0.0 in /  0 mm
08:57 9.3 °F /  -12.6 °C 6.7 °F /  -14.1 °C 1024.6 in /  34693 hPa Calm   1.6 mph /  2.6 km/h 84 % 0.0 in /  0 mm
09:02 9.7 °F /  -12.4 °C 7.3 °F /  -13.7 °C 1024.6 in /  34693 hPa Calm     85 % 0.0 in /  0 mm
09:12 10.4 °F /  -12 °C 7.3 °F /  -13.7 °C 1024.9 in /  34703.1 hPa Calm     81 % 0.0 in /  0 mm
09:22 10.6 °F /  -11.9 °C 7.8 °F /  -13.4 °C 1024.9 in /  34703.1 hPa ESE 3.2 mph /  5.1 km/h   83 % 0.0 in /  0 mm
09:32 11.9 °F /  -11.2 °C 8.9 °F /  -12.8 °C 1024.9 in /  34703.1 hPa Calm   4.8 mph /  7.7 km/h 82 % 0.0 in /  0 mm
09:42 12.4 °F /  -10.9 °C 8.5 °F /  -13.1 °C 1024.9 in /  34703.1 hPa West 9.7 mph /  15.6 km/h 12.9 mph /  20.8 km/h 77 % 0.0 in /  0 mm
09:47 12.4 °F /  -10.9 °C 8.3 °F /  -13.2 °C 1024.9 in /  34703.1 hPa West 8.0 mph /  12.9 km/h 12.9 mph /  20.8 km/h 76 % 0.0 in /  0 mm
09:57 12.6 °F /  -10.8 °C 8.7 °F /  -12.9 °C 1025.3 in /  34716.7 hPa West 3.2 mph /  5.1 km/h 16.1 mph /  25.9 km/h 77 % 0.0 in /  0 mm
10:02 12.7 °F /  -10.7 °C 8.6 °F /  -13 °C 1025.3 in /  34716.7 hPa SW 4.8 mph /  7.7 km/h 16.1 mph /  25.9 km/h 76 % 0.0 in /  0 mm
10:12 12.9 °F /  -10.6 °C 8.6 °F /  -13 °C 1025.3 in /  34716.7 hPa SW 3.2 mph /  5.1 km/h 11.3 mph /  18.2 km/h 75 % 0.0 in /  0 mm
10:17 13.1 °F /  -10.5 °C 8.8 °F /  -12.9 °C 1025.3 in /  34716.7 hPa SSW 3.2 mph /  5.1 km/h 11.3 mph /  18.2 km/h 75 % 0.0 in /  0 mm
10:22 13.1 °F /  -10.5 °C 8.6 °F /  -13 °C 1025.3 in /  34716.7 hPa SW 3.2 mph /  5.1 km/h 11.3 mph /  18.2 km/h 74 % 0.0 in /  0 mm
10:27 13.1 °F /  -10.5 °C 8.6 °F /  -13 °C 1025.3 in /  34716.7 hPa WSW 6.4 mph /  10.3 km/h 11.3 mph /  18.2 km/h 74 % 0.0 in /  0 mm
10:32 13.2 °F /  -10.4 °C 8.9 °F /  -12.8 °C 1025.3 in /  34716.7 hPa West 1.6 mph /  2.6 km/h 9.7 mph /  15.6 km/h 75 % 0.0 in /  0 mm
10:42 13.7 °F /  -10.2 °C 8.9 °F /  -12.8 °C 1025.6 in /  34726.8 hPa West 6.4 mph /  10.3 km/h 8.0 mph /  12.9 km/h 73 % 0.0 in /  0 mm
10:47 13.8 °F /  -10.1 °C 8.6 °F /  -13 °C 1025.6 in /  34726.8 hPa West 14.5 mph /  23.3 km/h 14.5 mph /  23.3 km/h 71 % 0.0 in /  0 mm
10:52 13.6 °F /  -10.2 °C 8.4 °F /  -13.1 °C 1025.6 in /  34726.8 hPa WSW 11.3 mph /  18.2 km/h 16.1 mph /  25.9 km/h 71 % 0.0 in /  0 mm
10:57 13.6 °F /  -10.2 °C 8.2 °F /  -13.2 °C 1025.6 in /  34726.8 hPa WSW 4.8 mph /  7.7 km/h 16.1 mph /  25.9 km/h 70 % 0.0 in /  0 mm
11:02 13.7 °F /  -10.2 °C 8.5 °F /  -13.1 °C 1025.6 in /  34726.8 hPa West 8.0 mph /  12.9 km/h 17.7 mph /  28.5 km/h 71 % 0.0 in /  0 mm
11:12 13.8 °F /  -10.1 °C 9.0 °F /  -12.8 °C 1026.0 in /  34740.4 hPa WSW 6.4 mph /  10.3 km/h 14.5 mph /  23.3 km/h 73 % 0.0 in /  0 mm
11:17 13.9 °F /  -10.1 °C 9.3 °F /  -12.6 °C 1026.0 in /  34740.4 hPa South 3.2 mph /  5.1 km/h 14.5 mph /  23.3 km/h 74 % 0.0 in /  0 mm
11:22 14.0 °F /  -10 °C 8.6 °F /  -13 °C 1026.0 in /  34740.4 hPa WSW 6.4 mph /  10.3 km/h 11.3 mph /  18.2 km/h 70 % 0.0 in /  0 mm
11:27 14.0 °F /  -10 °C 8.8 °F /  -12.9 °C 1026.0 in /  34740.4 hPa WSW 4.8 mph /  7.7 km/h 11.3 mph /  18.2 km/h 71 % 0.0 in /  0 mm
11:32 14.1 °F /  -9.9 °C 8.7 °F /  -12.9 °C 1026.0 in /  34740.4 hPa West 9.7 mph /  15.6 km/h 11.3 mph /  18.2 km/h 70 % 0.0 in /  0 mm
11:37 14.2 °F /  -9.9 °C 8.6 °F /  -13 °C 1026.0 in /  34740.4 hPa WSW 11.3 mph /  18.2 km/h 11.3 mph /  18.2 km/h 69 % 0.0 in /  0 mm
11:42 14.3 °F /  -9.8 °C 8.3 °F /  -13.2 °C 1026.0 in /  34740.4 hPa SW 3.2 mph /  5.1 km/h 16.1 mph /  25.9 km/h 67 % 0.0 in /  0 mm
11:52 14.4 °F /  -9.8 °C 8.1 °F /  -13.3 °C 1026.0 in /  34740.4 hPa SW 8.0 mph /  12.9 km/h 16.1 mph /  25.9 km/h 66 % 0.0 in /  0 mm
11:57 14.6 °F /  -9.7 °C 8.5 °F /  -13.1 °C 1026.0 in /  34740.4 hPa WSW 12.9 mph /  20.8 km/h 16.1 mph /  25.9 km/h 67 % 0.0 in /  0 mm
12:02 14.8 °F /  -9.6 °C 8.5 °F /  -13.1 °C 1026.0 in /  34740.4 hPa West 4.8 mph /  7.7 km/h 14.5 mph /  23.3 km/h 66 % 0.0 in /  0 mm
12:12 15.1 °F /  -9.4 °C 8.8 °F /  -12.9 °C 1026.0 in /  34740.4 hPa SE 3.2 mph /  5.1 km/h 14.5 mph /  23.3 km/h 66 % 0.0 in /  0 mm
12:17 15.4 °F /  -9.2 °C 9.7 °F /  -12.4 °C 1026.3 in /  34750.5 hPa West 4.8 mph /  7.7 km/h 14.5 mph /  23.3 km/h 69 % 0.0 in /  0 mm
12:22 16.1 °F /  -8.8 °C 9.1 °F /  -12.7 °C 1026.0 in /  34740.4 hPa West 9.7 mph /  15.6 km/h 11.3 mph /  18.2 km/h 63 % 0.0 in /  0 mm
12:32 15.8 °F /  -9 °C 8.3 °F /  -13.2 °C 1026.3 in /  34750.5 hPa WNW 9.7 mph /  15.6 km/h 11.3 mph /  18.2 km/h 61 % 0.0 in /  0 mm
12:37 15.8 °F /  -9 °C 9.0 °F /  -12.8 °C 1026.3 in /  34750.5 hPa West 9.7 mph /  15.6 km/h 14.5 mph /  23.3 km/h 64 % 0.0 in /  0 mm
12:42 15.7 °F /  -9.1 °C 8.7 °F /  -12.9 °C 1026.3 in /  34750.5 hPa WSW 9.7 mph /  15.6 km/h 14.5 mph /  23.3 km/h 63 % 0.0 in /  0 mm
12:47 15.3 °F /  -9.3 °C 8.8 °F /  -12.9 °C 1026.3 in /  34750.5 hPa West 12.9 mph /  20.8 km/h 14.5 mph /  23.3 km/h 65 % 0.0 in /  0 mm
12:52 15.3 °F /  -9.3 °C 9.2 °F /  -12.7 °C 1026.3 in /  34750.5 hPa WNW 9.7 mph /  15.6 km/h 20.9 mph /  33.6 km/h 67 % 0.0 in /  0 mm
13:02 15.4 °F /  -9.2 °C 8.9 °F /  -12.8 °C 1026.3 in /  34750.5 hPa West 11.3 mph /  18.2 km/h 20.9 mph /  33.6 km/h 65 % 0.0 in /  0 mm
13:12 15.3 °F /  -9.3 °C 8.3 °F /  -13.2 °C 1026.3 in /  34750.5 hPa WNW 14.5 mph /  23.3 km/h 24.1 mph /  38.8 km/h 63 % 0.0 in /  0 mm
13:17 15.1 °F /  -9.4 °C 8.3 °F /  -13.2 °C 1026.3 in /  34750.5 hPa WNW 11.3 mph /  18.2 km/h 24.1 mph /  38.8 km/h 64 % 0.0 in /  0 mm
13:22 15.1 °F /  -9.4 °C 8.3 °F /  -13.2 °C 1026.3 in /  34750.5 hPa WNW 6.4 mph /  10.3 km/h 17.7 mph /  28.5 km/h 64 % 0.0 in /  0 mm
13:27 15.4 °F /  -9.2 °C 8.9 °F /  -12.8 °C 1026.3 in /  34750.5 hPa NNW 9.7 mph /  15.6 km/h 17.7 mph /  28.5 km/h 65 % 0.0 in /  0 mm
13:32 15.7 °F /  -9.1 °C 8.4 °F /  -13.1 °C 1026.3 in /  34750.5 hPa West 8.0 mph /  12.9 km/h 16.1 mph /  25.9 km/h 62 % 0.0 in /  0 mm
13:42 15.7 °F /  -9.1 °C 8.9 °F /  -12.8 °C 1026.3 in /  34750.5 hPa WNW 9.7 mph /  15.6 km/h 16.1 mph /  25.9 km/h 64 % 0.0 in /  0 mm
13:52 15.8 °F /  -9 °C 9.0 °F /  -12.8 °C 1026.3 in /  34750.5 hPa WSW 12.9 mph /  20.8 km/h 20.9 mph /  33.6 km/h 64 % 0.0 in /  0 mm
14:02 15.8 °F /  -9 °C 8.3 °F /  -13.2 °C 1026.3 in /  34750.5 hPa WSW 9.7 mph /  15.6 km/h 19.3 mph /  31.1 km/h 61 % 0.0 in /  0 mm
14:12 15.7 °F /  -9.1 °C 8.4 °F /  -13.1 °C 1026.3 in /  34750.5 hPa WSW 3.2 mph /  5.1 km/h 20.9 mph /  33.6 km/h 62 % 0.0 in /  0 mm
14:17 15.7 °F /  -9.1 °C 8.2 °F /  -13.2 °C 1026.3 in /  34750.5 hPa West 9.7 mph /  15.6 km/h 20.9 mph /  33.6 km/h 61 % 0.0 in /  0 mm
14:22 15.8 °F /  -9 °C 7.8 °F /  -13.4 °C 1026.3 in /  34750.5 hPa West 12.9 mph /  20.8 km/h 19.3 mph /  31.1 km/h 59 % 0.0 in /  0 mm
14:32 16.3 °F /  -8.7 °C 9.0 °F /  -12.8 °C 1026.0 in /  34740.4 hPa WSW 12.9 mph /  20.8 km/h 19.3 mph /  31.1 km/h 62 % 0.0 in /  0 mm
14:37 16.4 °F /  -8.7 °C 8.4 °F /  -13.1 °C 1026.3 in /  34750.5 hPa SW 9.7 mph /  15.6 km/h 17.7 mph /  28.5 km/h 59 % 0.0 in /  0 mm
14:47 16.9 °F /  -8.4 °C 9.1 °F /  -12.7 °C 1026.0 in /  34740.4 hPa WSW 8.0 mph /  12.9 km/h 17.7 mph /  28.5 km/h 60 % 0.0 in /  0 mm
14:52 17.1 °F /  -8.3 °C 8.0 °F /  -13.3 °C 1026.0 in /  34740.4 hPa WSW 9.7 mph /  15.6 km/h 17.7 mph /  28.5 km/h 55 % 0.0 in /  0 mm
14:57 16.6 °F /  -8.6 °C 8.6 °F /  -13 °C 1026.0 in /  34740.4 hPa WSW 17.7 mph /  28.5 km/h 24.1 mph /  38.8 km/h 59 % 0.0 in /  0 mm
15:02 16.2 °F /  -8.8 °C 8.4 °F /  -13.1 °C 1026.0 in /  34740.4 hPa West 8.0 mph /  12.9 km/h 24.1 mph /  38.8 km/h 60 % 0.0 in /  0 mm
15:12 16.5 °F /  -8.6 °C 8.2 °F /  -13.2 °C 1026.0 in /  34740.4 hPa South 8.0 mph /  12.9 km/h 24.1 mph /  38.8 km/h 58 % 0.0 in /  0 mm
15:17 16.5 °F /  -8.6 °C 8.5 °F /  -13.1 °C 1026.0 in /  34740.4 hPa WSW 8.0 mph /  12.9 km/h 20.9 mph /  33.6 km/h 59 % 0.0 in /  0 mm
15:22 16.5 °F /  -8.6 °C 8.7 °F /  -12.9 °C 1026.0 in /  34740.4 hPa WSW 4.8 mph /  7.7 km/h 20.9 mph /  33.6 km/h 60 % 0.0 in /  0 mm
15:32 16.8 °F /  -8.4 °C 8.2 °F /  -13.2 °C 1026.0 in /  34740.4 hPa SW 14.5 mph /  23.3 km/h 19.3 mph /  31.1 km/h 57 % 0.0 in /  0 mm
15:42 17.3 °F /  -8.2 °C 8.2 °F /  -13.2 °C 1026.0 in /  34740.4 hPa South 1.6 mph /  2.6 km/h 20.9 mph /  33.6 km/h 55 % 0.0 in /  0 mm
15:52 17.3 °F /  -8.2 °C 8.7 °F /  -12.9 °C 1026.0 in /  34740.4 hPa SW 17.7 mph /  28.5 km/h 22.5 mph /  36.2 km/h 57 % 0.0 in /  0 mm
15:57 17.4 °F /  -8.1 °C 8.8 °F /  -12.9 °C 1026.0 in /  34740.4 hPa SW 11.3 mph /  18.2 km/h 25.7 mph /  41.4 km/h 57 % 0.0 in /  0 mm
16:02 17.3 °F /  -8.2 °C 8.4 °F /  -13.1 °C 1026.0 in /  34740.4 hPa West 9.7 mph /  15.6 km/h 25.7 mph /  41.4 km/h 56 % 0.0 in /  0 mm
16:12 17.3 °F /  -8.2 °C 8.4 °F /  -13.1 °C 1026.0 in /  34740.4 hPa SW 14.5 mph /  23.3 km/h 20.9 mph /  33.6 km/h 56 % 0.0 in /  0 mm
16:17 17.2 °F /  -8.2 °C 8.3 °F /  -13.2 °C 1026.0 in /  34740.4 hPa West 11.3 mph /  18.2 km/h 22.5 mph /  36.2 km/h 56 % 0.0 in /  0 mm
16:22 17.4 °F /  -8.1 °C 8.5 °F /  -13.1 °C 1026.0 in /  34740.4 hPa West 9.7 mph /  15.6 km/h 22.5 mph /  36.2 km/h 56 % 0.0 in /  0 mm
16:27 17.4 °F /  -8.1 °C 8.3 °F /  -13.2 °C 1026.0 in /  34740.4 hPa WSW 17.7 mph /  28.5 km/h 22.5 mph /  36.2 km/h 55 % 0.0 in /  0 mm
16:32 17.3 °F /  -8.2 °C 8.7 °F /  -12.9 °C 1026.0 in /  34740.4 hPa WSW 8.0 mph /  12.9 km/h 22.5 mph /  36.2 km/h 57 % 0.0 in /  0 mm
16:37 17.4 °F /  -8.1 °C 8.8 °F /  -12.9 °C 1026.0 in /  34740.4 hPa WSW 17.7 mph /  28.5 km/h 22.5 mph /  36.2 km/h 57 % 0.0 in /  0 mm
16:42 17.2 °F /  -8.2 °C 8.9 °F /  -12.8 °C 1026.0 in /  34740.4 hPa West 9.7 mph /  15.6 km/h 22.5 mph /  36.2 km/h 58 % 0.0 in /  0 mm
16:47 17.1 °F /  -8.3 °C 8.3 °F /  -13.2 °C 1026.0 in /  34740.4 hPa WSW 8.0 mph /  12.9 km/h 22.5 mph /  36.2 km/h 56 % 0.0 in /  0 mm
16:52 17.1 °F /  -8.3 °C 8.3 °F /  -13.2 °C 1026.0 in /  34740.4 hPa West 12.9 mph /  20.8 km/h 20.9 mph /  33.6 km/h 56 % 0.0 in /  0 mm
16:57 17.3 °F /  -8.2 °C 8.4 °F /  -13.1 °C 1026.0 in /  34740.4 hPa SW 20.9 mph /  33.6 km/h 22.5 mph /  36.2 km/h 56 % 0.0 in /  0 mm
17:02 17.2 °F /  -8.2 °C 8.3 °F /  -13.2 °C 1026.0 in /  34740.4 hPa West 11.3 mph /  18.2 km/h 22.5 mph /  36.2 km/h 56 % 0.0 in /  0 mm
17:12 17.1 °F /  -8.3 °C 8.8 °F /  -12.9 °C 1026.0 in /  34740.4 hPa West 11.3 mph /  18.2 km/h 25.7 mph /  41.4 km/h 58 % 0.0 in /  0 mm
17:17 17.2 °F /  -8.2 °C 9.1 °F /  -12.7 °C 1026.0 in /  34740.4 hPa WNW 8.0 mph /  12.9 km/h 25.7 mph /  41.4 km/h 59 % 0.0 in /  0 mm
17:22 17.2 °F /  -8.2 °C 8.3 °F /  -13.2 °C 1025.6 in /  34726.8 hPa West 12.9 mph /  20.8 km/h 19.3 mph /  31.1 km/h 56 % 0.0 in /  0 mm
17:27 17.2 °F /  -8.2 °C 8.1 °F /  -13.3 °C 1025.6 in /  34726.8 hPa WSW 12.9 mph /  20.8 km/h 19.3 mph /  31.1 km/h 55 % 0.0 in /  0 mm
17:32 17.3 °F /  -8.2 °C 8.2 °F /  -13.2 °C 1026.0 in /  34740.4 hPa West 6.4 mph /  10.3 km/h 19.3 mph /  31.1 km/h 55 % 0.0 in /  0 mm
17:42 17.3 °F /  -8.2 °C 8.4 °F /  -13.1 °C 1025.6 in /  34726.8 hPa WSW 6.4 mph /  10.3 km/h 19.3 mph /  31.1 km/h 56 % 0.0 in /  0 mm
17:52 17.7 °F /  -7.9 °C 7.4 °F /  -13.7 °C 1025.6 in /  34726.8 hPa SW 16.1 mph /  25.9 km/h 19.3 mph /  31.1 km/h 51 % 0.0 in /  0 mm
17:57 17.6 °F /  -8 °C 7.9 °F /  -13.4 °C 1026.0 in /  34740.4 hPa WSW 9.7 mph /  15.6 km/h 17.7 mph /  28.5 km/h 53 % 0.0 in /  0 mm
18:02 17.6 °F /  -8 °C 7.9 °F /  -13.4 °C 1026.0 in /  34740.4 hPa West 11.3 mph /  18.2 km/h 17.7 mph /  28.5 km/h 53 % 0.0 in /  0 mm
18:12 17.6 °F /  -8 °C 8.2 °F /  -13.2 °C 1026.0 in /  34740.4 hPa West 6.4 mph /  10.3 km/h 17.7 mph /  28.5 km/h 54 % 0.0 in /  0 mm
18:17 17.7 °F /  -7.9 °C 8.3 °F /  -13.2 °C 1026.0 in /  34740.4 hPa West 9.7 mph /  15.6 km/h 16.1 mph /  25.9 km/h 54 % 0.0 in /  0 mm
18:22 17.6 °F /  -8 °C 7.9 °F /  -13.4 °C 1026.0 in /  34740.4 hPa West 11.3 mph /  18.2 km/h 16.1 mph /  25.9 km/h 53 % 0.0 in /  0 mm
18:32 17.5 °F /  -8.1 °C 7.8 °F /  -13.4 °C 1026.0 in /  34740.4 hPa WNW 6.4 mph /  10.3 km/h 16.1 mph /  25.9 km/h 53 % 0.0 in /  0 mm
18:37 17.5 °F /  -8.1 °C 7.8 °F /  -13.4 °C 1026.0 in /  34740.4 hPa WSW 11.3 mph /  18.2 km/h 16.1 mph /  25.9 km/h 53 % 0.0 in /  0 mm
18:42 17.5 °F /  -8.1 °C 8.1 °F /  -13.3 °C 1026.0 in /  34740.4 hPa SW 8.0 mph /  12.9 km/h 16.1 mph /  25.9 km/h 54 % 0.0 in /  0 mm
18:47 17.6 °F /  -8 °C 7.9 °F /  -13.4 °C 1026.0 in /  34740.4 hPa WSW 9.7 mph /  15.6 km/h 17.7 mph /  28.5 km/h 53 % 0.0 in /  0 mm
18:52 17.6 °F /  -8 °C 8.2 °F /  -13.2 °C 1026.0 in /  34740.4 hPa WNW 6.4 mph /  10.3 km/h 17.7 mph /  28.5 km/h 54 % 0.0 in /  0 mm
18:57 17.6 °F /  -8 °C 7.9 °F /  -13.4 °C 1026.0 in /  34740.4 hPa WSW 11.3 mph /  18.2 km/h 16.1 mph /  25.9 km/h 53 % 0.0 in /  0 mm
19:02 17.4 °F /  -8.1 °C 8.0 °F /  -13.3 °C 1026.0 in /  34740.4 hPa WSW 6.4 mph /  10.3 km/h 16.1 mph /  25.9 km/h 54 % 0.0 in /  0 mm
19:12 17.4 °F /  -8.1 °C 8.0 °F /  -13.3 °C 1026.0 in /  34740.4 hPa SSW 6.4 mph /  10.3 km/h 17.7 mph /  28.5 km/h 54 % 0.0 in /  0 mm
19:17 17.4 °F /  -8.1 °C 8.0 °F /  -13.3 °C 1026.0 in /  34740.4 hPa WSW 3.2 mph /  5.1 km/h 17.7 mph /  28.5 km/h 54 % 0.0 in /  0 mm
19:22 17.4 °F /  -8.1 °C 8.0 °F /  -13.3 °C 1026.3 in /  34750.5 hPa West 6.4 mph /  10.3 km/h 14.5 mph /  23.3 km/h 54 % 0.0 in /  0 mm
19:27 17.2 °F /  -8.2 °C 8.1 °F /  -13.3 °C 1026.3 in /  34750.5 hPa SSE 3.2 mph /  5.1 km/h 9.7 mph /  15.6 km/h 55 % 0.0 in /  0 mm
19:32 17.1 °F /  -8.3 °C 8.0 °F /  -13.3 °C 1026.3 in /  34750.5 hPa West 4.8 mph /  7.7 km/h 11.3 mph /  18.2 km/h 55 % 0.0 in /  0 mm
19:42 16.9 °F /  -8.4 °C 8.1 °F /  -13.3 °C 1026.3 in /  34750.5 hPa SW 8.0 mph /  12.9 km/h 11.3 mph /  18.2 km/h 56 % 0.0 in /  0 mm
19:47 16.8 °F /  -8.4 °C 8.2 °F /  -13.2 °C 1026.3 in /  34750.5 hPa SW 6.4 mph /  10.3 km/h 14.5 mph /  23.3 km/h 57 % 0.0 in /  0 mm
19:52 16.6 °F /  -8.6 °C 8.0 °F /  -13.3 °C 1026.3 in /  34750.5 hPa WSW 4.8 mph /  7.7 km/h 9.7 mph /  15.6 km/h 57 % 0.0 in /  0 mm
19:57 16.3 °F /  -8.7 °C 8.0 °F /  -13.3 °C 1026.3 in /  34750.5 hPa SW 4.8 mph /  7.7 km/h 9.7 mph /  15.6 km/h 58 % 0.0 in /  0 mm
20:02 16.2 °F /  -8.8 °C 7.9 °F /  -13.4 °C 1026.3 in /  34750.5 hPa SW 3.2 mph /  5.1 km/h 9.7 mph /  15.6 km/h 58 % 0.0 in /  0 mm
20:12 15.9 °F /  -8.9 °C 7.9 °F /  -13.4 °C 1026.6 in /  34760.7 hPa WSW 6.4 mph /  10.3 km/h 9.7 mph /  15.6 km/h 59 % 0.0 in /  0 mm
20:17 15.7 °F /  -9.1 °C 7.7 °F /  -13.5 °C 1026.6 in /  34760.7 hPa West 3.2 mph /  5.1 km/h 8.0 mph /  12.9 km/h 59 % 0.0 in /  0 mm
20:22 15.5 °F /  -9.2 °C 7.8 °F /  -13.4 °C 1026.6 in /  34760.7 hPa WSW 4.8 mph /  7.7 km/h 8.0 mph /  12.9 km/h 60 % 0.0 in /  0 mm
20:32 15.2 °F /  -9.3 °C 7.7 °F /  -13.5 °C 1026.6 in /  34760.7 hPa SW 4.8 mph /  7.7 km/h 9.7 mph /  15.6 km/h 61 % 0.0 in /  0 mm
20:42 14.9 °F /  -9.5 °C 7.7 °F /  -13.5 °C 1026.6 in /  34760.7 hPa WSW 1.6 mph /  2.6 km/h 9.7 mph /  15.6 km/h 62 % 0.0 in /  0 mm
20:47 14.7 °F /  -9.6 °C 7.7 °F /  -13.5 °C 1027.0 in /  34774.2 hPa West 3.2 mph /  5.1 km/h 8.0 mph /  12.9 km/h 63 % 0.0 in /  0 mm
20:52 14.6 °F /  -9.7 °C 7.6 °F /  -13.6 °C 1027.0 in /  34774.2 hPa West 3.2 mph /  5.1 km/h 8.0 mph /  12.9 km/h 63 % 0.0 in /  0 mm
21:02 14.4 °F /  -9.8 °C 7.7 °F /  -13.5 °C 1027.0 in /  34774.2 hPa West 3.2 mph /  5.1 km/h 4.8 mph /  7.7 km/h 64 % 0.0 in /  0 mm
21:12 13.9 °F /  -10.1 °C 7.7 °F /  -13.5 °C 1027.0 in /  34774.2 hPa West 1.6 mph /  2.6 km/h 4.8 mph /  7.7 km/h 66 % 0.0 in /  0 mm
21:17 13.7 °F /  -10.2 °C 7.7 °F /  -13.5 °C 1027.0 in /  34774.2 hPa West 1.6 mph /  2.6 km/h 4.8 mph /  7.7 km/h 67 % 0.0 in /  0 mm
21:22 13.6 °F /  -10.2 °C 7.8 °F /  -13.4 °C 1027.0 in /  34774.2 hPa West 1.6 mph /  2.6 km/h 3.2 mph /  5.1 km/h 68 % 0.0 in /  0 mm
21:32 13.4 °F /  -10.3 °C 7.6 °F /  -13.6 °C 1027.3 in /  34784.4 hPa Calm   1.6 mph /  2.6 km/h 68 % 0.0 in /  0 mm
21:42 13.0 °F /  -10.6 °C 7.4 °F /  -13.7 °C 1027.7 in /  34797.9 hPa Calm   1.6 mph /  2.6 km/h 69 % 0.0 in /  0 mm
21:52 12.9 °F /  -10.6 °C 7.6 °F /  -13.6 °C 1027.7 in /  34797.9 hPa Calm     70 % 0.0 in /  0 mm
21:57 13.0 °F /  -10.6 °C 7.7 °F /  -13.5 °C 1027.7 in /  34797.9 hPa Calm     70 % 0.0 in /  0 mm
22:02 13.0 °F /  -10.6 °C 7.7 °F /  -13.5 °C 1027.7 in /  34797.9 hPa Calm     70 % 0.0 in /  0 mm
22:12 12.7 °F /  -10.7 °C 7.6 °F /  -13.6 °C 1027.7 in /  34797.9 hPa Calm     71 % 0.0 in /  0 mm
22:17 12.6 °F /  -10.8 °C 7.5 °F /  -13.6 °C 1027.7 in /  34797.9 hPa West 1.6 mph /  2.6 km/h 1.6 mph /  2.6 km/h 71 % 0.0 in /  0 mm
22:22 12.6 °F /  -10.8 °C 7.5 °F /  -13.6 °C 1027.7 in /  34797.9 hPa West 1.6 mph /  2.6 km/h 1.6 mph /  2.6 km/h 71 % 0.0 in /  0 mm
22:27 12.4 °F /  -10.9 °C 7.5 °F /  -13.6 °C 1027.7 in /  34797.9 hPa Calm   3.2 mph /  5.1 km/h 72 % 0.0 in /  0 mm
22:32 12.2 °F /  -11 °C 7.3 °F /  -13.7 °C 1027.7 in /  34797.9 hPa Calm   3.2 mph /  5.1 km/h 72 % 0.0 in /  0 mm
22:42 11.4 °F /  -11.4 °C 7.1 °F /  -13.8 °C 1028.0 in /  34808.1 hPa West 1.6 mph /  2.6 km/h 1.6 mph /  2.6 km/h 75 % 0.0 in /  0 mm
22:47 11.3 °F /  -11.5 °C 7.2 °F /  -13.8 °C 1028.0 in /  34808.1 hPa West 1.6 mph /  2.6 km/h 1.6 mph /  2.6 km/h 76 % 0.0 in /  0 mm
22:52 11.1 °F /  -11.6 °C 7.0 °F /  -13.9 °C 1028.0 in /  34808.1 hPa Calm   1.6 mph /  2.6 km/h 76 % 0.0 in /  0 mm
22:57 11.0 °F /  -11.7 °C 7.1 °F /  -13.8 °C 1028.0 in /  34808.1 hPa Calm   1.6 mph /  2.6 km/h 77 % 0.0 in /  0 mm
23:02 10.9 °F /  -11.7 °C 7.0 °F /  -13.9 °C 1028.0 in /  34808.1 hPa Calm   1.6 mph /  2.6 km/h 77 % 0.0 in /  0 mm
23:12 10.8 °F /  -11.8 °C 6.9 °F /  -13.9 °C 1028.0 in /  34808.1 hPa Calm   1.6 mph /  2.6 km/h 77 % 0.0 in /  0 mm
23:17 10.6 °F /  -11.9 °C 6.9 °F /  -13.9 °C 1028.0 in /  34808.1 hPa Calm   1.6 mph /  2.6 km/h 78 % 0.0 in /  0 mm
23:22 10.5 °F /  -11.9 °C 6.8 °F /  -14 °C 1028.0 in /  34808.1 hPa Calm     78 % 0.0 in /  0 mm
23:32 10.1 °F /  -12.2 °C 6.6 °F /  -14.1 °C 1028.0 in /  34808.1 hPa Calm   1.6 mph /  2.6 km/h 79 % 0.0 in /  0 mm
23:42 9.7 °F /  -12.4 °C 6.6 °F /  -14.1 °C 1028.0 in /  34808.1 hPa Calm     81 % 0.0 in /  0 mm
23:47 9.7 °F /  -12.4 °C 6.8 °F /  -14 °C 1028.0 in /  34808.1 hPa Calm     82 % 0.0 in /  0 mm
23:52 9.9 °F /  -12.3 °C 7.0 °F /  -13.9 °C 1028.0 in /  34808.1 hPa Calm     82 % 0.0 in /  0 mm
23:57 10.1 °F /  -12.2 °C 7.0 °F /  -13.9 °C 1028.0 in /  34808.1 hPa Calm   1.6 mph /  2.6 km/h 81 % 0.0 in /  0 mm
Meteo18
Compliments of Weather Underground - 4 mb

Script developed by  Jim McMurry - jmcmurry@mwt.net Adapted for the template by  Wim van der Kuil - Leuven-Template.eu

You find our weather info also at:

European Weather Network

Weather Underground

Equipment we use:

Weather-station
Davis Vue

Weather-program
Meteobridge

Weather-server
Raspberry PI 2 B+

Provider
1 and 1

Davis Vue

Meteobridge

Raspberry PI 2 B+

1 and 1